Главная страница
METAR-TAF:

METAR-TAF

Аэропорты :

Международный аэропорт имени Ибрагима Насира

Мале, Мальдивы

широта: 04-12N, долгота: 073-32E, высота над уровнем моря: 2 м

Текущие метеонаблюдения

Эта сводка был подготовлена 1 час и 3 минут назад, в 10:00 UTC
Ветер 9 Узел от восточный
Температура 32°C
Влажность 59%
Давление 1010 hPa
Видимость 10 км и более
небольшая облачность на высоте 1800 фута

METAR: VRMM 261000Z 09009KT 9999 FEW018 32/23 Q1010 NOSIG

Время: 16:03 (11:03 UTC)

Прогноз

Эта сводка был подготовлена 6 часа и 3 минут назад, в 05:00 UTC
Прогноз действительный с 26-го 06 UTC до 27-го 12 UTC
Ветер 11 Узел от восточный
Видимость 10 км и более
небольшая облачность на высоте 1800 фута
временами
С 26-го 06 UTC до 26-го 12 UTC
небольшая облачность на высоте 2000 фута, Кучево-дождевые.

TAF: VRMM 260500Z 2606/2712 09011KT 9999 FEW018 TEMPO 2606/2612 FEW020CB

Метеонаблюдения и прогнозы для более 4000 аэропортов (сводки METAR и TAF).

Имеющиеся станции представлены на карте желтыми и красными точками.

Чтобы увидеть название станции, наведите на нее мышь.

Затем щелкните, чтобы увидеть метеонаблюдения и метеопрогнозы.

Управление картой: чтобы увеличить масштаб, щелкните зеленые кнопки с черным крестиком; чтобы уменьшить масштаб, щелкните зеленую кнопку с тире; для просмотра соседних карт щелкайте зеленые стрелки.


METAR-TAF: